Time;durP1;ratioP1;P1;durP2;ratioP2;P2;SDS_P1;SDS_P2;PMS_P1;PMS_P2;Temp;Humidity;BMP_temperature;BMP_pressure;BME280_temperature;BME280_humidity;BME280_pressure;Samples;Min_cycle;Max_cycle;Signal;HPM_P1;HPM_P2
2023/03/12 00:02:17;;;;;;;10.38;6.00;;;-0.40;99.90;;;;;;4985229;28;20088;-50
2023/03/12 00:04:42;;;;;;;11.35;6.05;;;-0.40;99.90;;;;;;4991966;28;20093;-49
2023/03/12 00:07:08;;;;;;;8.73;5.35;;;-0.30;99.90;;;;;;4988909;28;20050;-51
2023/03/12 00:09:35;;;;;;;6.72;5.00;;;-0.30;99.90;;;;;;4990499;28;20121;-50
2023/03/12 00:12:01;;;;;;;8.38;4.15;;;-0.30;99.90;;;;;;4991233;28;20049;-50
2023/03/12 00:14:27;;;;;;;7.32;4.97;;;-0.30;99.90;;;;;;4990688;28;20134;-50
2023/03/12 00:16:54;;;;;;;7.40;4.47;;;-0.30;99.90;;;;;;4986419;28;20536;-52
2023/03/12 00:19:20;;;;;;;9.18;4.38;;;-0.30;99.90;;;;;;4974311;28;20389;-48
2023/03/12 00:21:46;;;;;;;8.57;4.47;;;-0.30;99.90;;;;;;4984973;28;20042;-49
2023/03/12 00:24:11;;;;;;;7.53;4.22;;;-0.30;99.90;;;;;;4974140;28;20150;-52
2023/03/12 00:26:37;;;;;;;8.60;4.70;;;-0.30;99.90;;;;;;4978464;28;20392;-48
2023/03/12 00:29:03;;;;;;;6.97;4.57;;;-0.30;99.90;;;;;;4980222;28;20039;-50
2023/03/12 00:31:31;;;;;;;7.07;4.65;;;-0.30;99.90;;;;;;4979486;28;20042;-49
2023/03/12 00:33:58;;;;;;;6.65;4.50;;;-0.30;99.90;;;;;;4962960;28;20126;-49
2023/03/12 00:36:28;;;;;;;9.38;4.70;;;-0.30;99.90;;;;;;4980612;28;20510;-53
2023/03/12 00:38:54;;;;;;;9.30;4.57;;;-0.30;99.90;;;;;;4979317;28;20530;-49
2023/03/12 00:41:21;;;;;;;10.20;4.25;;;-0.30;99.90;;;;;;4978772;28;20400;-50
2023/03/12 00:43:48;;;;;;;6.10;4.40;;;-0.40;99.90;;;;;;4976078;28;20331;-49
2023/03/12 00:46:13;;;;;;;8.10;4.85;;;-0.30;99.90;;;;;;4975564;28;20042;-49
2023/03/12 00:48:40;;;;;;;9.88;4.40;;;-0.30;99.90;;;;;;4981240;28;20046;-49
2023/03/12 00:51:07;;;;;;;7.43;3.80;;;-0.30;99.90;;;;;;4982731;28;20050;-51
2023/03/12 00:53:33;;;;;;;7.47;3.90;;;-0.30;99.90;;;;;;4982207;28;20130;-49
2023/03/12 00:55:59;;;;;;;5.22;3.85;;;-0.30;99.90;;;;;;4983565;28;20120;-54
2023/03/12 00:58:25;;;;;;;7.45;4.20;;;-0.30;99.90;;;;;;4984272;28;20385;-54
2023/03/12 01:00:51;;;;;;;6.07;3.90;;;-0.30;99.90;;;;;;4985265;28;20034;-49
2023/03/12 01:03:18;;;;;;;10.55;4.07;;;-0.30;99.90;;;;;;4984939;28;20528;-53
2023/03/12 01:05:43;;;;;;;7.55;4.55;;;-0.30;99.90;;;;;;4982603;28;20050;-51
2023/03/12 01:08:09;;;;;;;6.32;4.28;;;-0.30;99.90;;;;;;4982912;28;20468;-52
2023/03/12 01:10:39;;;;;;;7.00;3.97;;;-0.30;99.90;;;;;;4981530;28;20034;-49
2023/03/12 01:13:05;;;;;;;9.57;3.60;;;-0.30;99.90;;;;;;4988657;28;20035;-52
2023/03/12 01:15:31;;;;;;;6.90;3.63;;;-0.30;99.90;;;;;;4980634;28;20035;-53
2023/03/12 01:17:56;;;;;;;7.55;4.25;;;-0.30;99.90;;;;;;4978166;28;20077;-51
2023/03/12 01:20:22;;;;;;;5.32;3.67;;;-0.20;99.90;;;;;;4978869;28;20035;-51
2023/03/12 01:22:48;;;;;;;5.25;3.80;;;-0.20;99.90;;;;;;4979718;28;20038;-49
2023/03/12 01:25:14;;;;;;;8.23;3.95;;;-0.20;99.90;;;;;;4979193;28;20046;-50
2023/03/12 01:27:39;;;;;;;5.80;3.70;;;-0.20;99.90;;;;;;4978883;28;20499;-49
2023/03/12 01:30:06;;;;;;;6.18;3.72;;;-0.10;99.90;;;;;;4979959;28;20159;-50
2023/03/12 01:32:31;;;;;;;9.65;3.53;;;0.00;99.90;;;;;;4979089;28;20126;-49
2023/03/12 01:34:59;;;;;;;5.25;3.72;;;0.00;99.90;;;;;;4964447;28;20149;-49
2023/03/12 01:37:25;;;;;;;6.85;3.60;;;0.00;99.90;;;;;;4979015;28;20128;-49
2023/03/12 01:39:50;;;;;;;6.55;4.00;;;0.10;99.90;;;;;;4979665;28;20039;-50
2023/03/12 01:42:16;;;;;;;6.65;3.38;;;0.10;99.90;;;;;;4980048;28;20041;-49
2023/03/12 01:44:56;;;;;;;6.28;3.78;;;0.10;99.90;;;;;;4992119;28;20043;-52
2023/03/12 01:47:23;;;;;;;6.60;3.80;;;0.20;99.90;;;;;;4991218;28;20081;-49
2023/03/12 01:49:50;;;;;;;6.07;3.60;;;0.20;99.90;;;;;;4994641;28;20045;-51
2023/03/12 01:52:25;;;;;;;5.30;3.40;;;0.30;99.90;;;;;;4987352;28;20121;-50
2023/03/12 01:54:57;;;;;;;9.73;3.63;;;0.30;99.90;;;;;;4985352;28;20170;-49
2023/03/12 01:57:29;;;;;;;5.78;3.72;;;0.30;99.90;;;;;;4986639;28;20115;-54
2023/03/12 02:00:03;;;;;;;9.00;3.42;;;0.30;99.90;;;;;;4982049;28;20046;-49
2023/03/12 02:02:29;;;;;;;9.70;3.60;;;0.30;99.90;;;;;;4992545;28;20500;-53
2023/03/12 02:05:03;;;;;;;5.20;3.30;;;0.30;99.90;;;;;;4973371;28;20045;-54
2023/03/12 02:07:29;;;;;;;4.15;3.40;;;0.30;99.90;;;;;;4985011;28;20050;-50
2023/03/12 02:09:55;;;;;;;5.93;3.83;;;0.30;99.90;;;;;;4984744;28;20042;-49
2023/03/12 02:12:20;;;;;;;4.35;3.55;;;0.30;99.90;;;;;;4979654;28;20043;-51
2023/03/12 02:14:46;;;;;;;6.88;3.63;;;0.30;99.90;;;;;;4977347;28;20042;-49
2023/03/12 02:17:12;;;;;;;5.40;3.50;;;0.30;99.90;;;;;;4982809;28;20552;-49
2023/03/12 02:20:10;;;;;;;7.22;3.85;;;0.30;99.90;;;;;;4983718;28;20650;-50
2023/03/12 02:22:39;;;;;;;4.97;3.60;;;0.30;99.90;;;;;;4977631;28;20488;-50
2023/03/12 02:25:16;;;;;;;5.55;4.10;;;0.30;99.90;;;;;;4978704;28;20042;-50
2023/03/12 02:27:42;;;;;;;6.03;3.83;;;0.30;99.90;;;;;;4978606;28;20064;-50
2023/03/12 02:30:09;;;;;;;6.70;3.90;;;0.30;99.90;;;;;;4979295;28;20100;-49
2023/03/12 02:32:38;;;;;;;6.80;4.30;;;0.30;99.90;;;;;;4977855;28;20162;-49
2023/03/12 02:35:05;;;;;;;6.93;3.92;;;0.30;99.90;;;;;;4993752;28;20046;-49
2023/03/12 02:37:31;;;;;;;5.07;3.67;;;0.30;99.90;;;;;;4956221;28;20117;-50
2023/03/12 02:40:12;;;;;;;5.82;3.85;;;0.30;99.90;;;;;;5000499;28;20057;-49
2023/03/12 02:42:37;;;;;;;5.47;3.70;;;0.30;99.90;;;;;;4990378;28;20122;-49
2023/03/12 02:45:04;;;;;;;6.57;3.75;;;0.20;99.90;;;;;;4990302;28;20169;-49
2023/03/12 02:47:29;;;;;;;7.68;3.50;;;0.30;99.90;;;;;;4987513;28;20042;-49
2023/03/12 02:49:55;;;;;;;4.88;3.92;;;0.20;99.90;;;;;;4982821;28;20050;-49
2023/03/12 02:52:20;;;;;;;9.85;4.20;;;0.20;99.90;;;;;;4981903;28;20045;-49
2023/03/12 02:54:46;;;;;;;5.93;3.92;;;0.30;99.90;;;;;;4980244;28;20039;-50
2023/03/12 02:57:12;;;;;;;6.40;4.53;;;0.20;99.90;;;;;;4964319;28;20047;-49
2023/03/12 02:59:37;;;;;;;7.70;4.47;;;0.30;99.90;;;;;;4981865;28;20054;-50
2023/03/12 03:02:03;;;;;;;5.95;4.38;;;0.20;99.90;;;;;;4963969;28;20079;-52
2023/03/12 03:04:30;;;;;;;8.73;4.93;;;0.30;99.90;;;;;;4982550;28;20468;-51
2023/03/12 03:06:56;;;;;;;6.47;4.53;;;0.30;99.90;;;;;;4982480;28;20046;-50
2023/03/12 03:09:23;;;;;;;7.30;4.78;;;0.30;99.90;;;;;;4982067;28;20042;-49
2023/03/12 03:11:49;;;;;;;7.22;4.88;;;0.30;99.90;;;;;;4981437;28;20488;-49
2023/03/12 03:14:15;;;;;;;13.25;5.45;;;0.30;99.90;;;;;;4988952;28;20046;-49
2023/03/12 03:16:40;;;;;;;10.02;4.95;;;0.30;99.90;;;;;;4983876;28;20057;-50
2023/03/12 03:19:07;;;;;;;6.88;4.90;;;0.30;99.90;;;;;;5008758;28;20062;-51
2023/03/12 03:21:33;;;;;;;11.95;5.40;;;0.30;99.90;;;;;;4983186;28;20437;-53
2023/03/12 03:23:59;;;;;;;8.40;5.47;;;0.30;99.90;;;;;;4984909;28;20059;-49
2023/03/12 03:26:25;;;;;;;9.82;5.28;;;0.30;99.90;;;;;;4983907;28;20034;-49
2023/03/12 03:28:50;;;;;;;8.73;5.10;;;0.30;99.90;;;;;;4983957;28;20122;-52
2023/03/12 03:31:17;;;;;;;7.75;5.28;;;0.30;99.90;;;;;;4967092;28;20069;-49
2023/03/12 03:33:43;;;;;;;8.43;5.13;;;0.30;99.90;;;;;;4985137;28;20503;-49
2023/03/12 03:36:10;;;;;;;11.00;5.78;;;0.30;99.90;;;;;;4983468;28;20126;-49
2023/03/12 03:38:36;;;;;;;7.83;5.30;;;0.30;99.90;;;;;;4964461;28;20047;-49
2023/03/12 03:41:02;;;;;;;10.95;5.63;;;0.40;99.90;;;;;;4982025;28;20429;-49
2023/03/12 03:43:28;;;;;;;7.43;5.43;;;0.40;99.90;;;;;;5000460;28;20043;-49
2023/03/12 03:46:02;;;;;;;7.30;5.47;;;0.40;99.90;;;;;;4997580;28;20041;-49
2023/03/12 03:48:28;;;;;;;10.05;5.88;;;0.40;99.90;;;;;;4998941;28;20050;-49
2023/03/12 03:50:53;;;;;;;7.10;5.10;;;0.50;99.90;;;;;;4992905;28;20202;-50
2023/03/12 03:53:20;;;;;;;6.85;5.25;;;0.50;99.90;;;;;;4992630;28;20038;-49
2023/03/12 03:55:46;;;;;;;8.85;5.60;;;0.50;99.90;;;;;;4991056;28;20065;-49
2023/03/12 03:58:12;;;;;;;8.75;6.03;;;0.50;99.90;;;;;;4991455;28;20046;-49
2023/03/12 04:00:38;;;;;;;11.60;5.97;;;0.50;99.90;;;;;;4958020;28;20057;-49
2023/03/12 04:03:03;;;;;;;11.32;5.47;;;0.50;99.90;;;;;;4992223;28;20125;-49
2023/03/12 04:05:29;;;;;;;8.88;5.60;;;0.60;99.90;;;;;;4992590;28;20429;-49
2023/03/12 04:07:55;;;;;;;8.32;5.93;;;0.60;99.90;;;;;;4992268;28;20042;-49
2023/03/12 04:10:23;;;;;;;12.73;5.85;;;0.60;99.90;;;;;;4992379;28;20042;-49
2023/03/12 04:12:49;;;;;;;7.82;5.30;;;0.60;99.90;;;;;;4982796;28;20047;-52
2023/03/12 04:15:15;;;;;;;9.30;5.30;;;0.60;99.90;;;;;;4963549;28;20107;-53
2023/03/12 04:17:41;;;;;;;7.85;5.20;;;0.70;99.90;;;;;;4979461;28;20431;-51
2023/03/12 04:20:08;;;;;;;10.10;5.60;;;0.60;99.90;;;;;;4964164;28;20042;-49
2023/03/12 04:22:34;;;;;;;9.40;5.88;;;0.70;99.90;;;;;;4968908;28;20031;-49
2023/03/12 04:25:00;;;;;;;7.80;5.28;;;0.60;99.90;;;;;;4987742;28;20123;-50
2023/03/12 04:27:26;;;;;;;8.05;5.80;;;0.60;99.90;;;;;;4990351;28;20129;-54
2023/03/12 04:29:52;;;;;;;10.98;5.90;;;0.70;99.90;;;;;;4980409;28;20075;-52
2023/03/12 04:32:17;;;;;;;9.65;5.72;;;0.70;99.90;;;;;;4980795;28;20174;-53
2023/03/12 04:34:43;;;;;;;9.85;5.82;;;0.70;99.90;;;;;;4981125;28;20039;-50
2023/03/12 04:37:14;;;;;;;10.77;6.07;;;0.70;99.90;;;;;;4983302;28;20043;-49
2023/03/12 04:39:41;;;;;;;7.18;5.60;;;0.70;99.90;;;;;;4981487;28;20041;-49
2023/03/12 04:42:07;;;;;;;10.57;6.20;;;0.80;99.90;;;;;;4981636;28;20169;-49
2023/03/12 04:44:33;;;;;;;11.10;6.15;;;0.90;99.90;;;;;;4982139;28;20128;-52
2023/03/12 04:46:59;;;;;;;12.35;5.75;;;0.90;99.90;;;;;;4977945;28;20133;-50
2023/03/12 04:49:25;;;;;;;16.00;6.22;;;0.90;99.90;;;;;;4978995;28;20046;-50
2023/03/12 04:51:51;;;;;;;9.15;6.20;;;1.00;99.90;;;;;;4978966;28;20516;-53
2023/03/12 04:54:16;;;;;;;10.68;6.35;;;1.00;99.90;;;;;;4980935;28;20039;-49
2023/03/12 04:56:42;;;;;;;12.40;6.25;;;1.00;99.90;;;;;;4976028;28;20042;-50
2023/03/12 04:59:08;;;;;;;9.88;5.97;;;1.10;99.90;;;;;;4980081;28;20052;-49
2023/03/12 05:01:35;;;;;;;10.02;6.32;;;1.10;99.90;;;;;;4962287;28;20054;-49
2023/03/12 05:04:02;;;;;;;10.90;6.50;;;1.10;99.90;;;;;;4979482;28;20038;-50
2023/03/12 05:06:28;;;;;;;9.38;6.55;;;1.10;99.90;;;;;;4979955;28;20077;-50
2023/03/12 05:08:53;;;;;;;10.73;6.78;;;1.10;99.90;;;;;;4977574;28;20053;-50
2023/03/12 05:11:20;;;;;;;10.02;7.07;;;1.00;99.90;;;;;;4962492;28;20038;-49
2023/03/12 05:13:46;;;;;;;13.63;7.60;;;1.00;99.90;;;;;;4980285;28;20065;-49
2023/03/12 05:16:13;;;;;;;11.85;7.43;;;0.90;99.90;;;;;;4979820;28;20177;-51
2023/03/12 05:18:39;;;;;;;11.00;7.38;;;0.90;99.90;;;;;;4980505;28;20100;-49
2023/03/12 05:21:13;;;;;;;10.40;7.38;;;0.90;99.90;;;;;;4982014;28;20042;-53
2023/03/12 05:23:41;;;;;;;9.85;7.25;;;0.90;99.90;;;;;;4979772;28;20069;-53
2023/03/12 05:26:14;;;;;;;11.52;7.80;;;0.90;99.90;;;;;;4982761;28;20126;-53
2023/03/12 05:28:39;;;;;;;12.25;8.27;;;0.90;99.90;;;;;;4978236;28;20085;-50
2023/03/12 05:31:08;;;;;;;12.30;7.53;;;0.90;99.90;;;;;;4986536;28;20089;-54
2023/03/12 05:33:34;;;;;;;10.52;7.85;;;0.90;99.90;;;;;;4987054;28;20052;-52
2023/03/12 05:36:00;;;;;;;12.05;7.68;;;0.90;99.90;;;;;;4981209;28;20121;-52
2023/03/12 05:38:25;;;;;;;9.63;7.75;;;0.90;99.90;;;;;;4985357;28;20038;-50
2023/03/12 05:40:53;;;;;;;13.05;8.43;;;0.90;99.90;;;;;;4983377;28;20050;-53
2023/03/12 05:43:19;;;;;;;13.07;7.47;;;0.90;99.90;;;;;;4968603;28;20530;-51
2023/03/12 05:45:45;;;;;;;11.73;7.90;;;0.90;99.90;;;;;;4984746;28;20034;-50
2023/03/12 05:48:10;;;;;;;12.80;7.43;;;0.90;99.90;;;;;;4984059;28;20038;-51
2023/03/12 05:50:36;;;;;;;11.70;8.10;;;0.90;99.90;;;;;;4985431;28;20538;-49
2023/03/12 05:53:02;;;;;;;11.80;7.80;;;0.90;99.90;;;;;;4984634;28;20501;-50
2023/03/12 05:55:27;;;;;;;11.43;6.95;;;1.00;99.90;;;;;;4981619;28;20079;-50
2023/03/12 05:57:53;;;;;;;11.80;7.70;;;0.90;99.90;;;;;;4965711;28;20469;-51
2023/03/12 06:00:20;;;;;;;9.20;7.57;;;1.00;99.90;;;;;;4981784;28;20481;-50
2023/03/12 06:02:45;;;;;;;10.23;6.93;;;1.00;99.90;;;;;;4969384;28;20050;-50
2023/03/12 06:05:11;;;;;;;10.30;6.38;;;1.00;99.90;;;;;;4984063;28;20123;-53
2023/03/12 06:07:38;;;;;;;11.13;6.43;;;1.10;99.90;;;;;;4984287;28;20062;-51
2023/03/12 06:10:04;;;;;;;8.65;6.47;;;1.10;99.90;;;;;;4984903;28;20496;-49
2023/03/12 06:12:29;;;;;;;10.65;6.80;;;1.10;99.90;;;;;;4986371;28;20423;-49
2023/03/12 06:14:56;;;;;;;9.63;6.53;;;1.10;99.90;;;;;;4983643;28;20058;-50
2023/03/12 06:17:22;;;;;;;9.13;6.88;;;1.10;99.90;;;;;;4984796;28;20038;-49
2023/03/12 06:19:51;;;;;;;10.57;6.65;;;1.10;99.90;;;;;;4996520;28;20401;-50
2023/03/12 06:22:17;;;;;;;12.20;6.55;;;1.20;99.90;;;;;;4985167;28;20472;-49
2023/03/12 06:24:46;;;;;;;11.13;6.70;;;1.20;99.90;;;;;;4985741;28;20726;-49
2023/03/12 06:27:12;;;;;;;;;;;1.20;99.90;;;;;;4986287;28;20068;-49
2023/03/12 06:29:37;;;;;;;9.85;6.20;;;1.30;99.90;;;;;;4986925;28;20332;-50
2023/03/12 06:32:03;;;;;;;9.38;6.00;;;1.30;99.90;;;;;;4984190;28;20138;-49
2023/03/12 06:34:29;;;;;;;11.13;6.80;;;1.40;99.90;;;;;;4987775;28;20034;-54
2023/03/12 06:36:54;;;;;;;8.82;6.18;;;1.40;99.90;;;;;;4983165;28;20056;-50
2023/03/12 06:39:20;;;;;;;7.80;5.95;;;1.40;99.90;;;;;;4970735;28;20045;-51
2023/03/12 06:41:46;;;;;;;11.23;6.07;;;1.40;99.90;;;;;;4984927;28;20092;-49
2023/03/12 06:44:11;;;;;;;6.97;5.82;;;1.50;99.90;;;;;;4989761;28;20409;-53
2023/03/12 06:46:37;;;;;;;8.68;5.50;;;1.50;99.90;;;;;;4985205;28;20038;-49
2023/03/12 06:49:03;;;;;;;8.15;5.63;;;1.70;99.90;;;;;;4984059;28;20055;-51
2023/03/12 06:51:29;;;;;;;10.27;5.43;;;1.80;99.90;;;;;;4976956;28;20076;-50
2023/03/12 06:53:54;;;;;;;8.38;5.35;;;1.90;99.90;;;;;;4980593;28;20096;-50
2023/03/12 06:56:20;;;;;;;11.85;5.60;;;1.90;99.90;;;;;;4993609;28;20088;-49
2023/03/12 06:58:45;;;;;;;8.93;5.53;;;1.90;99.90;;;;;;4984035;28;20050;-51
2023/03/12 07:01:12;;;;;;;10.27;5.90;;;2.00;99.90;;;;;;4982604;28;20051;-51
2023/03/12 07:03:38;;;;;;;8.75;5.50;;;2.00;99.90;;;;;;4982315;28;20512;-51
2023/03/12 07:06:04;;;;;;;10.18;5.85;;;2.10;99.90;;;;;;4983489;28;20054;-50
2023/03/12 07:08:30;;;;;;;8.77;5.80;;;2.10;99.90;;;;;;4984212;28;20034;-49
2023/03/12 07:10:57;;;;;;;12.38;5.70;;;2.10;99.90;;;;;;4982905;28;20050;-50
2023/03/12 07:13:22;;;;;;;8.85;5.90;;;2.10;99.90;;;;;;4943443;28;20433;-50
2023/03/12 07:15:48;;;;;;;11.07;6.15;;;2.20;99.90;;;;;;4984170;28;20042;-49
2023/03/12 07:18:14;;;;;;;8.52;6.10;;;2.20;99.90;;;;;;4983247;28;20049;-49
2023/03/12 07:20:42;;;;;;;13.00;5.95;;;2.20;99.90;;;;;;4979773;28;20070;-50
2023/03/12 07:23:08;;;;;;;11.30;6.00;;;2.20;99.90;;;;;;4981302;28;20648;-49
2023/03/12 07:25:38;;;;;;;8.82;6.18;;;2.10;99.90;;;;;;4977904;28;20460;-49
2023/03/12 07:28:05;;;;;;;8.88;6.18;;;2.10;99.90;;;;;;4977856;28;20046;-51
2023/03/12 07:30:32;;;;;;;10.30;6.40;;;2.10;99.90;;;;;;4977378;28;20042;-51
2023/03/12 07:33:09;;;;;;;9.13;6.47;;;2.10;99.90;;;;;;4980855;28;20046;-50
2023/03/12 07:35:37;;;;;;;8.57;6.38;;;2.10;99.90;;;;;;4984794;28;20046;-49
2023/03/12 07:38:03;;;;;;;9.45;6.25;;;2.10;99.90;;;;;;4980289;28;20042;-49
2023/03/12 07:40:29;;;;;;;9.32;6.13;;;2.10;99.90;;;;;;4963052;28;20049;-50
2023/03/12 07:42:54;;;;;;;8.70;6.30;;;2.00;99.90;;;;;;4978494;28;20126;-50
2023/03/12 07:45:20;;;;;;;11.93;6.45;;;2.00;99.90;;;;;;4990695;28;20043;-50
2023/03/12 07:47:46;;;;;;;12.13;6.60;;;2.00;99.90;;;;;;4992314;28;20034;-50
2023/03/12 07:50:12;;;;;;;9.38;6.60;;;1.90;99.90;;;;;;4992685;28;20053;-50
2023/03/12 07:52:38;;;;;;;9.13;7.00;;;1.90;99.90;;;;;;4992607;28;20076;-48
2023/03/12 07:55:04;;;;;;;11.15;6.82;;;1.90;99.90;;;;;;4992760;28;20070;-49
2023/03/12 07:57:29;;;;;;;12.25;6.80;;;1.80;99.90;;;;;;4986726;28;20042;-51
2023/03/12 07:59:55;;;;;;;9.13;6.85;;;1.90;99.90;;;;;;4978919;28;20038;-50
2023/03/12 08:02:20;;;;;;;15.57;7.13;;;1.80;99.90;;;;;;4964779;28;20134;-51
2023/03/12 08:04:46;;;;;;;12.50;6.88;;;1.90;99.90;;;;;;4986993;28;20042;-49
2023/03/12 08:07:13;;;;;;;8.68;6.55;;;1.90;99.90;;;;;;4986028;28;20050;-49
2023/03/12 08:09:38;;;;;;;9.20;6.40;;;1.90;99.90;;;;;;4978382;28;20038;-50
2023/03/12 08:12:05;;;;;;;9.93;6.88;;;1.80;99.90;;;;;;4979449;28;20134;-49
2023/03/12 08:14:31;;;;;;;7.80;7.00;;;1.80;99.90;;;;;;4979464;28;20042;-52
2023/03/12 08:16:59;;;;;;;13.00;6.93;;;1.80;99.90;;;;;;4979470;28;20970;-49
2023/03/12 08:19:26;;;;;;;13.55;6.97;;;1.80;99.90;;;;;;4985440;28;20049;-49
2023/03/12 08:21:52;;;;;;;9.88;6.57;;;1.80;99.90;;;;;;4986449;28;20117;-49
2023/03/12 08:24:21;;;;;;;11.68;7.50;;;1.80;99.90;;;;;;4991515;28;20561;-49
2023/03/12 08:26:47;;;;;;;10.48;7.07;;;1.90;99.90;;;;;;4979563;28;20088;-49
2023/03/12 08:29:13;;;;;;;11.10;6.22;;;1.90;99.90;;;;;;4983008;28;20512;-49
2023/03/12 08:31:39;;;;;;;10.00;6.57;;;2.00;99.90;;;;;;4980955;28;20050;-49
2023/03/12 08:34:04;;;;;;;8.18;6.60;;;2.00;99.90;;;;;;4984478;28;20206;-51
2023/03/12 08:36:30;;;;;;;10.93;6.78;;;2.00;99.90;;;;;;4981627;28;20062;-50
2023/03/12 08:38:56;;;;;;;9.88;6.22;;;2.00;99.90;;;;;;4981099;28;20434;-50
2023/03/12 08:41:21;;;;;;;10.27;6.60;;;2.00;99.90;;;;;;4983856;28;20084;-50
2023/03/12 08:43:47;;;;;;;11.95;6.70;;;2.00;99.90;;;;;;4983364;28;20042;-49
2023/03/12 08:46:13;;;;;;;10.20;6.20;;;2.00;99.90;;;;;;4981846;28;20476;-52
2023/03/12 08:48:39;;;;;;;10.27;7.55;;;2.00;99.90;;;;;;4979589;28;20038;-49
2023/03/12 08:51:06;;;;;;;9.68;7.25;;;1.90;99.90;;;;;;4963148;28;20038;-49
2023/03/12 08:53:34;;;;;;;11.63;8.02;;;2.00;99.90;;;;;;4979444;28;20050;-52
2023/03/12 08:56:01;;;;;;;10.45;7.20;;;2.00;99.90;;;;;;4979511;28;20122;-50
2023/03/12 08:58:26;;;;;;;12.10;7.90;;;2.10;99.90;;;;;;4963700;28;20034;-49
2023/03/12 09:00:53;;;;;;;11.65;7.75;;;2.10;99.90;;;;;;4980427;28;20053;-52
2023/03/12 09:03:20;;;;;;;9.80;7.88;;;2.20;99.90;;;;;;4976711;28;20476;-49
2023/03/12 09:05:47;;;;;;;13.85;8.27;;;2.20;99.90;;;;;;4977728;28;20479;-53
2023/03/12 09:08:13;;;;;;;10.75;7.88;;;2.30;99.90;;;;;;4976971;28;20046;-50
2023/03/12 09:10:39;;;;;;;14.15;7.85;;;2.30;99.90;;;;;;4976267;28;20645;-49
2023/03/12 09:13:05;;;;;;;12.55;8.82;;;2.30;99.90;;;;;;4959829;28;21367;-52
2023/03/12 09:15:31;;;;;;;11.43;8.63;;;2.30;99.90;;;;;;4977542;28;20037;-49
2023/03/12 09:17:57;;;;;;;13.02;8.95;;;2.30;99.90;;;;;;4979180;28;20077;-49
2023/03/12 09:20:24;;;;;;;12.35;8.30;;;2.30;99.90;;;;;;4961424;28;20062;-53
2023/03/12 09:22:50;;;;;;;13.07;8.50;;;2.40;99.90;;;;;;4979276;28;20045;-50
2023/03/12 09:25:16;;;;;;;10.98;8.18;;;2.40;99.90;;;;;;4962370;28;20068;-53
2023/03/12 09:27:45;;;;;;;10.65;8.90;;;2.30;99.90;;;;;;4961727;28;20084;-52
2023/03/12 09:30:14;;;;;;;10.60;8.63;;;2.40;99.90;;;;;;4977697;28;20042;-52
2023/03/12 09:32:39;;;;;;;10.90;8.48;;;2.40;99.90;;;;;;4980579;28;20038;-51
2023/03/12 09:35:06;;;;;;;15.38;9.25;;;2.40;99.90;;;;;;4982970;28;20900;-53
2023/03/12 09:37:33;;;;;;;13.95;9.85;;;2.40;99.90;;;;;;4985208;28;20197;-55
2023/03/12 09:40:04;;;;;;;9.88;8.90;;;2.40;99.90;;;;;;4985252;28;20046;-52
2023/03/12 09:42:40;;;;;;;12.95;10.02;;;2.40;99.90;;;;;;4985165;28;20392;-53
2023/03/12 09:45:14;;;;;;;15.48;10.55;;;2.40;99.90;;;;;;4968878;28;20051;-55
2023/03/12 09:47:49;;;;;;;12.00;10.30;;;2.50;99.90;;;;;;4991369;28;20043;-51
2023/03/12 09:50:42;;;;;;;12.93;11.02;;;2.50;99.90;;;;;;4990662;28;20050;-51
2023/03/12 09:53:35;;;;;;;16.50;12.75;;;2.50;99.90;;;;;;4982889;28;20061;-51
2023/03/12 09:56:08;;;;;;;15.63;12.88;;;2.50;99.90;;;;;;4983839;28;20049;-53
2023/03/12 09:58:37;;;;;;;16.73;13.77;;;2.50;99.90;;;;;;4972129;28;20088;-55
2023/03/12 10:01:39;;;;;;;17.95;12.32;;;2.50;99.90;;;;;;4985355;28;20130;-54
2023/03/12 10:04:11;;;;;;;15.98;13.55;;;2.60;99.90;;;;;;4979484;28;20048;-52
2023/03/12 10:07:08;;;;;;;15.80;13.63;;;2.60;99.90;;;;;;4977017;28;20480;-50
2023/03/12 10:10:09;;;;;;;18.77;14.90;;;2.70;99.90;;;;;;4982915;28;20096;-51
2023/03/12 10:13:10;;;;;;;18.73;13.95;;;2.70;99.90;;;;;;4983425;28;20046;-50
2023/03/12 10:15:35;;;;;;;20.63;15.23;;;2.70;99.90;;;;;;4991965;28;20046;-51
2023/03/12 10:18:10;;;;;;;17.27;14.73;;;2.80;99.90;;;;;;4988006;28;20057;-51
2023/03/12 10:20:57;;;;;;;19.15;16.10;;;2.80;99.90;;;;;;4969490;28;20046;-50
2023/03/12 10:23:23;;;;;;;19.20;16.17;;;2.90;99.90;;;;;;4968512;28;20042;-50
2023/03/12 10:26:17;;;;;;;16.35;14.68;;;3.00;99.90;;;;;;4989309;28;20057;-51
2023/03/12 10:28:47;;;;;;;20.35;16.42;;;3.00;99.90;;;;;;4985031;28;20138;-51
2023/03/12 10:31:20;;;;;;;20.08;16.33;;;3.10;99.90;;;;;;4987164;28;20046;-51
2023/03/12 10:33:55;;;;;;;18.60;16.67;;;3.20;99.90;;;;;;4986723;28;20038;-54
2023/03/12 10:36:35;;;;;;;19.35;16.27;;;3.20;99.90;;;;;;4962750;28;20074;-49
2023/03/12 10:39:01;;;;;;;20.35;16.75;;;3.20;99.90;;;;;;4980382;28;20553;-53
2023/03/12 10:41:31;;;;;;;17.52;15.63;;;3.20;99.90;;;;;;4984010;28;20042;-51
2023/03/12 10:44:00;;;;;;;22.70;20.35;;;3.30;99.90;;;;;;4983278;28;20413;-52
2023/03/12 10:46:43;;;;;;;20.58;17.70;;;3.30;99.90;;;;;;4983969;28;20054;-50
2023/03/12 10:49:21;;;;;;;22.60;20.17;;;3.40;99.90;;;;;;4987565;28;20274;-50
2023/03/12 10:52:25;;;;;;;21.40;17.80;;;3.40;99.90;;;;;;4987406;28;20050;-50
2023/03/12 10:54:52;;;;;;;18.40;16.17;;;3.50;99.90;;;;;;4987174;28;20373;-54
2023/03/12 10:57:19;;;;;;;18.40;15.82;;;3.60;99.90;;;;;;4988426;28;20042;-50
2023/03/12 10:59:48;;;;;;;20.00;15.57;;;3.70;99.90;;;;;;4990287;28;20125;-50
2023/03/12 11:02:37;;;;;;;17.20;15.38;;;3.70;99.90;;;;;;4987356;28;20050;-51
2023/03/12 11:05:25;;;;;;;16.23;13.75;;;3.70;99.90;;;;;;4983243;28;20034;-53
2023/03/12 11:07:51;;;;;;;15.27;13.77;;;3.80;99.90;;;;;;4965987;28;20085;-51
2023/03/12 11:10:22;;;;;;;14.15;11.13;;;3.90;99.90;;;;;;5000110;28;20395;-50
2023/03/12 11:13:00;;;;;;;16.73;13.52;;;3.90;99.90;;;;;;4990385;28;20412;-50
2023/03/12 11:15:36;;;;;;;;;;;4.00;99.90;;;;;;4976109;28;20046;-52
2023/03/12 11:18:18;;;;;;;15.15;13.48;;;;;;;;;;4990173;28;20298;-51
2023/03/12 11:20:44;;;;;;;15.82;13.57;;;4.10;99.90;;;;;;4988433;28;20038;-50
2023/03/12 11:23:21;;;;;;;14.35;12.85;;;4.20;99.90;;;;;;4989104;28;20161;-50
2023/03/12 11:25:52;;;;;;;20.00;14.18;;;4.30;99.90;;;;;;4968910;28;20046;-51
2023/03/12 11:28:22;;;;;;;17.15;15.40;;;;;;;;;;4986091;28;20573;-50
2023/03/12 11:30:50;;;;;;;19.52;14.77;;;4.60;99.90;;;;;;4986450;28;20492;-50
2023/03/12 11:33:16;;;;;;;16.42;13.75;;;4.70;99.90;;;;;;4985868;28;20151;-52
2023/03/12 11:35:48;;;;;;;15.57;13.25;;;;;;;;;;4983123;28;20429;-50
2023/03/12 11:38:40;;;;;;;16.80;13.80;;;4.70;99.90;;;;;;4986717;28;20074;-50
2023/03/12 11:44:01;;;;;;;15.02;13.50;;;4.90;99.90;;;;;;5017857;23;20420;-50
2023/03/12 11:46:43;;;;;;;18.70;14.98;;;4.90;99.90;;;;;;5004589;28;20072;-50
2023/03/12 11:49:14;;;;;;;18.95;15.00;;;;;;;;;;5004224;28;20086;-50
2023/03/12 11:51:52;;;;;;;20.02;15.52;;;5.30;99.90;;;;;;5011225;28;20041;-50
2023/03/12 11:54:38;;;;;;;18.10;15.40;;;5.40;99.90;;;;;;5015129;28;20101;-51
2023/03/12 11:57:19;;;;;;;17.70;15.10;;;5.50;99.90;;;;;;5015940;28;20053;-51
2023/03/12 12:00:13;;;;;;;18.63;14.80;;;5.60;99.90;;;;;;5002183;28;20038;-50
2023/03/12 12:03:01;;;;;;;16.60;14.77;;;5.70;99.90;;;;;;5011782;28;20096;-50
2023/03/12 12:05:31;;;;;;;21.30;16.92;;;5.70;99.90;;;;;;5006885;28;20126;-50
2023/03/12 12:08:08;;;;;;;19.25;15.43;;;5.90;99.90;;;;;;5012093;28;20041;-52
2023/03/12 12:10:45;;;;;;;23.40;16.83;;;6.00;99.90;;;;;;5009902;28;20038;-50
2023/03/12 12:13:16;;;;;;;22.73;15.85;;;6.10;99.90;;;;;;4996459;28;20046;-51
2023/03/12 12:15:58;;;;;;;21.50;16.10;;;6.10;99.90;;;;;;5010741;28;20125;-50
2023/03/12 12:19:05;;;;;;;21.08;16.23;;;6.20;99.90;;;;;;5000661;28;20054;-50
2023/03/12 12:21:43;;;;;;;21.88;15.15;;;6.20;99.90;;;;;;4998151;28;20049;-50
2023/03/12 12:24:25;;;;;;;21.60;16.52;;;6.30;99.90;;;;;;5009974;28;20133;-50
2023/03/12 12:27:06;;;;;;;20.58;16.40;;;6.30;99.90;;;;;;5012774;28;20492;-55
2023/03/12 12:29:56;;;;;;;20.35;15.65;;;6.30;99.90;;;;;;5017075;28;20041;-50
2023/03/12 12:32:41;;;;;;;19.38;15.73;;;6.40;99.90;;;;;;5017005;28;20037;-50
2023/03/12 12:35:26;;;;;;;20.10;16.08;;;6.40;99.90;;;;;;5010654;28;20049;-50
2023/03/12 12:38:03;;;;;;;23.13;15.63;;;6.40;99.90;;;;;;5008253;28;20085;-50
2023/03/12 12:40:36;;;;;;;25.33;17.20;;;6.40;99.90;;;;;;5012833;28;20042;-50
2023/03/12 12:43:20;;;;;;;23.52;16.90;;;6.50;99.90;;;;;;5010589;28;20041;-50
2023/03/12 12:45:49;;;;;;;25.75;17.30;;;6.50;99.90;;;;;;5008096;28;20056;-50
2023/03/12 12:48:20;;;;;;;22.08;16.52;;;6.50;99.90;;;;;;5006671;28;20046;-54
2023/03/12 12:50:47;;;;;;;26.70;17.73;;;6.50;99.90;;;;;;5003385;28;20045;-51
2023/03/12 12:53:42;;;;;;;24.45;17.75;;;6.60;99.90;;;;;;5010747;28;20038;-50
2023/03/12 12:56:20;;;;;;;25.10;18.63;;;6.70;99.90;;;;;;5008827;28;20042;-52
2023/03/12 12:59:23;;;;;;;29.85;18.92;;;6.70;99.90;;;;;;5003669;28;20058;-50
2023/03/12 13:01:52;;;;;;;28.23;19.10;;;6.80;99.90;;;;;;5008444;28;20053;-50
2023/03/12 13:04:35;;;;;;;29.33;19.48;;;6.90;99.90;;;;;;4999259;28;20403;-50
2023/03/12 13:07:10;;;;;;;30.83;19.58;;;7.00;99.90;;;;;;5009965;28;20052;-50